createdAt,value
2023-03-29T00:00:14.548Z,99.90
2023-03-29T00:01:34.810Z,99.90
2023-03-29T00:02:37.088Z,99.90
2023-03-29T00:03:40.381Z,99.90
2023-03-29T00:04:42.390Z,99.90
2023-03-29T00:05:44.758Z,99.90
2023-03-29T00:06:47.973Z,99.90
2023-03-29T00:08:01.897Z,99.90
2023-03-29T00:09:05.794Z,99.90
2023-03-29T00:10:09.994Z,99.90
2023-03-29T00:11:12.516Z,99.90
2023-03-29T00:12:14.129Z,99.90
2023-03-29T00:13:15.756Z,99.90
2023-03-29T00:14:17.341Z,99.90
2023-03-29T00:15:19.181Z,99.90
2023-03-29T00:16:20.888Z,99.90
2023-03-29T00:17:22.998Z,99.90
2023-03-29T00:18:24.848Z,99.90
2023-03-29T00:19:26.764Z,99.90
2023-03-29T00:20:28.968Z,99.90
2023-03-29T00:21:30.650Z,99.90
2023-03-29T00:22:32.265Z,99.90
2023-03-29T00:23:33.650Z,99.90
2023-03-29T00:24:35.491Z,99.90
2023-03-29T00:25:36.927Z,99.90
2023-03-29T00:26:38.360Z,99.90
2023-03-29T00:27:40.906Z,99.90
2023-03-29T00:28:42.310Z,99.90
2023-03-29T00:29:43.904Z,99.90
2023-03-29T00:30:46.512Z,99.90
2023-03-29T00:31:53.733Z,99.90
2023-03-29T00:32:55.595Z,99.90
2023-03-29T00:33:57.717Z,99.90
2023-03-29T00:35:00.976Z,99.90
2023-03-29T00:36:04.728Z,99.90
2023-03-29T00:37:08.861Z,99.90
2023-03-29T00:38:10.699Z,99.90
2023-03-29T00:39:12.114Z,99.90
2023-03-29T00:40:15.423Z,99.90
2023-03-29T00:41:16.860Z,99.90
2023-03-29T00:42:18.920Z,99.90
2023-03-29T00:43:20.685Z,99.90
2023-03-29T00:44:55.712Z,99.90
2023-03-29T00:45:57.175Z,99.90
2023-03-29T00:46:59.000Z,99.90
2023-03-29T00:48:07.311Z,99.90
2023-03-29T00:49:15.494Z,99.90
2023-03-29T00:50:31.435Z,99.90
2023-03-29T00:51:35.938Z,99.90
2023-03-29T00:52:39.751Z,99.90
2023-03-29T00:53:49.375Z,99.90
2023-03-29T00:54:54.969Z,99.90
2023-03-29T00:56:06.272Z,99.90
2023-03-29T00:57:09.411Z,99.90
2023-03-29T00:58:13.947Z,99.90
2023-03-29T00:59:22.290Z,99.90
2023-03-29T01:00:31.801Z,99.90
2023-03-29T01:01:42.064Z,99.90
2023-03-29T01:02:51.146Z,99.90
2023-03-29T01:04:08.765Z,99.90
2023-03-29T01:05:20.079Z,99.90
2023-03-29T01:06:25.009Z,99.90
2023-03-29T01:07:58.065Z,99.90
2023-03-29T01:09:03.521Z,99.90
2023-03-29T01:10:09.225Z,99.90
2023-03-29T01:11:18.004Z,99.90
2023-03-29T01:12:31.364Z,99.90
2023-03-29T01:13:51.708Z,99.90
2023-03-29T01:15:06.547Z,99.90
2023-03-29T01:16:11.558Z,99.90
2023-03-29T01:17:13.798Z,99.90
2023-03-29T01:18:15.843Z,99.90
2023-03-29T01:19:22.634Z,99.90
2023-03-29T01:20:51.062Z,99.90
2023-03-29T01:22:29.829Z,99.90
2023-03-29T01:23:53.849Z,99.90
2023-03-29T01:24:58.341Z,99.90
2023-03-29T01:26:18.913Z,99.90
2023-03-29T01:27:41.788Z,99.90
2023-03-29T01:28:56.844Z,99.90
2023-03-29T01:30:07.464Z,99.90
2023-03-29T01:31:12.883Z,99.90
2023-03-29T01:32:37.585Z,99.90
2023-03-29T01:33:44.706Z,99.90
2023-03-29T01:34:58.693Z,99.90
2023-03-29T01:36:11.797Z,99.90
2023-03-29T01:37:24.669Z,99.90
2023-03-29T01:38:30.748Z,99.90
2023-03-29T01:39:34.237Z,99.90
2023-03-29T01:40:36.224Z,99.90
2023-03-29T01:41:46.685Z,99.90
2023-03-29T01:42:57.913Z,99.90
2023-03-29T01:44:04.772Z,99.90
2023-03-29T01:45:20.927Z,99.90
2023-03-29T01:46:32.560Z,99.90
2023-03-29T01:47:51.767Z,99.90
2023-03-29T01:49:12.142Z,99.90
2023-03-29T01:50:34.506Z,99.90
2023-03-29T01:51:44.640Z,99.90
2023-03-29T01:52:53.564Z,99.90
2023-03-29T01:54:00.795Z,99.90
2023-03-29T01:55:20.245Z,99.90
2023-03-29T01:56:27.964Z,99.90
2023-03-29T01:57:31.565Z,99.90
2023-03-29T01:58:38.625Z,99.90
2023-03-29T01:59:44.236Z,99.90
2023-03-29T02:00:46.968Z,99.90
2023-03-29T02:01:56.691Z,99.90
2023-03-29T02:03:06.227Z,99.90
2023-03-29T02:04:13.259Z,99.90
2023-03-29T02:05:16.575Z,99.90
2023-03-29T02:06:22.280Z,99.90
2023-03-29T02:07:31.077Z,99.90
2023-03-29T02:08:32.780Z,99.90
2023-03-29T02:09:37.736Z,99.90
2023-03-29T02:10:39.862Z,99.90
2023-03-29T02:11:42.557Z,99.90
2023-03-29T02:12:44.207Z,99.90
2023-03-29T02:13:46.048Z,99.40
2023-03-29T02:14:49.221Z,99.00
2023-03-29T02:15:50.942Z,99.90
2023-03-29T02:16:52.558Z,99.90
2023-03-29T02:17:54.877Z,99.90
2023-03-29T02:18:57.692Z,99.90
2023-03-29T02:20:20.935Z,99.90
2023-03-29T02:21:29.449Z,99.90
2023-03-29T02:22:41.240Z,99.90
2023-03-29T02:23:49.070Z,99.90
2023-03-29T02:24:56.597Z,99.90
2023-03-29T02:25:58.753Z,99.90
2023-03-29T02:27:01.346Z,99.90
2023-03-29T02:28:04.616Z,99.90
2023-03-29T02:29:06.496Z,99.90
2023-03-29T02:30:11.502Z,99.90
2023-03-29T02:31:21.563Z,99.90
2023-03-29T02:32:33.269Z,99.90
2023-03-29T02:33:45.507Z,99.90
2023-03-29T02:35:07.405Z,99.90
2023-03-29T02:36:18.682Z,99.90
2023-03-29T02:37:22.212Z,99.90
2023-03-29T02:38:26.436Z,99.90
2023-03-29T02:39:32.127Z,99.90
2023-03-29T02:40:34.780Z,99.90
2023-03-29T02:41:38.570Z,99.90
2023-03-29T02:42:42.895Z,99.90
2023-03-29T02:43:46.560Z,99.90
2023-03-29T02:44:51.074Z,99.90
2023-03-29T02:45:53.258Z,99.90
2023-03-29T02:47:05.733Z,99.90
2023-03-29T02:48:12.296Z,99.90
2023-03-29T02:49:14.006Z,98.60
2023-03-29T02:50:16.564Z,97.30
2023-03-29T02:51:27.005Z,97.30
2023-03-29T02:52:37.158Z,97.00
2023-03-29T02:53:50.374Z,96.50
2023-03-29T02:54:54.471Z,96.80
2023-03-29T02:55:56.118Z,97.70
2023-03-29T02:57:04.796Z,99.40
2023-03-29T02:58:08.365Z,97.30
2023-03-29T02:59:12.376Z,95.80
2023-03-29T03:00:20.124Z,95.10
2023-03-29T03:01:23.118Z,94.80
2023-03-29T03:02:25.981Z,94.60
2023-03-29T03:03:29.293Z,94.50
2023-03-29T03:04:35.704Z,94.40
2023-03-29T03:05:38.438Z,93.40
2023-03-29T03:06:41.588Z,95.00
2023-03-29T03:07:46.192Z,96.70
2023-03-29T03:08:48.305Z,96.70
2023-03-29T03:09:49.781Z,96.60
2023-03-29T03:10:51.469Z,96.60
2023-03-29T03:11:54.225Z,97.30
2023-03-29T03:12:56.302Z,97.30
2023-03-29T03:13:58.103Z,97.70
2023-03-29T03:14:59.581Z,99.10
2023-03-29T03:16:01.289Z,98.70
2023-03-29T03:17:04.757Z,97.40
2023-03-29T03:18:07.381Z,97.80
2023-03-29T03:19:10.313Z,99.30
2023-03-29T03:20:15.067Z,99.20
2023-03-29T03:21:20.071Z,99.90
2023-03-29T03:22:21.562Z,99.90
2023-03-29T03:23:24.022Z,99.90
2023-03-29T03:24:28.084Z,99.30
2023-03-29T03:25:31.596Z,99.90
2023-03-29T03:26:33.830Z,99.90
2023-03-29T03:27:36.076Z,99.90
2023-03-29T03:28:37.650Z,99.90
2023-03-29T03:29:42.199Z,99.90
2023-03-29T03:30:46.289Z,99.80
2023-03-29T03:32:07.818Z,98.80
2023-03-29T03:33:32.912Z,98.80
2023-03-29T03:35:05.924Z,96.60
2023-03-29T03:36:10.250Z,94.70
2023-03-29T03:37:12.480Z,94.30
2023-03-29T03:38:14.224Z,94.80
2023-03-29T03:39:17.762Z,97.00
2023-03-29T03:40:20.879Z,97.70
2023-03-29T03:41:23.084Z,98.20
2023-03-29T03:42:27.108Z,95.70
2023-03-29T03:43:29.303Z,93.80
2023-03-29T03:44:31.516Z,94.10
2023-03-29T03:45:55.761Z,93.90
2023-03-29T03:46:59.098Z,92.80
2023-03-29T03:48:00.690Z,93.40
2023-03-29T03:49:22.810Z,93.80
2023-03-29T03:50:24.357Z,91.90
2023-03-29T03:51:26.541Z,92.40
2023-03-29T03:52:28.256Z,92.60
2023-03-29T03:53:29.925Z,92.40
2023-03-29T03:54:50.299Z,91.80
2023-03-29T03:56:13.474Z,91.80
2023-03-29T03:57:41.362Z,91.40
2023-03-29T03:58:47.561Z,91.60
2023-03-29T03:59:52.354Z,91.10
2023-03-29T04:01:14.276Z,90.80
2023-03-29T04:02:25.519Z,89.40
2023-03-29T04:03:27.893Z,89.40
2023-03-29T04:04:29.524Z,88.70
2023-03-29T04:05:52.864Z,89.20
2023-03-29T04:07:02.601Z,90.10
2023-03-29T04:08:07.443Z,89.90
2023-03-29T04:09:33.585Z,89.80
2023-03-29T04:10:55.176Z,89.70
2023-03-29T04:12:01.856Z,90.00
2023-03-29T04:13:05.202Z,89.40
2023-03-29T04:14:10.314Z,88.20
2023-03-29T04:15:32.861Z,87.80
2023-03-29T04:16:40.768Z,86.60
2023-03-29T04:18:02.349Z,88.60
2023-03-29T04:19:16.913Z,89.70
2023-03-29T04:20:19.697Z,89.20
2023-03-29T04:21:21.455Z,90.70
2023-03-29T04:22:25.313Z,92.20
2023-03-29T04:23:27.908Z,93.20
2023-03-29T04:24:29.600Z,91.30
2023-03-29T04:25:55.303Z,88.70
2023-03-29T04:27:16.593Z,90.90
2023-03-29T04:28:18.203Z,91.10
2023-03-29T04:29:44.710Z,91.80
2023-03-29T04:30:58.281Z,92.20
2023-03-29T04:32:16.550Z,91.10
2023-03-29T04:33:28.792Z,91.20
2023-03-29T04:34:34.347Z,91.20
2023-03-29T04:35:37.795Z,91.50
2023-03-29T04:36:41.464Z,91.50
2023-03-29T04:37:52.737Z,92.70
2023-03-29T04:38:55.909Z,94.00
2023-03-29T04:40:04.809Z,94.00
2023-03-29T04:41:20.978Z,94.70
2023-03-29T04:42:39.018Z,94.80
2023-03-29T04:43:41.324Z,93.40
2023-03-29T04:44:50.046Z,92.00
2023-03-29T04:45:59.624Z,91.30
2023-03-29T04:47:36.769Z,93.20
2023-03-29T04:48:45.008Z,93.30
2023-03-29T04:49:47.788Z,93.20
2023-03-29T04:50:57.370Z,92.80
2023-03-29T04:52:00.725Z,92.90
2023-03-29T04:53:04.625Z,92.10
2023-03-29T04:54:06.575Z,92.40
2023-03-29T04:55:28.572Z,92.80
2023-03-29T04:56:39.475Z,94.00
2023-03-29T04:58:00.495Z,94.90
2023-03-29T04:59:08.110Z,94.80
2023-03-29T05:00:15.319Z,95.80
2023-03-29T05:01:35.119Z,94.40
2023-03-29T05:02:36.723Z,93.60
2023-03-29T05:03:38.609Z,94.70
2023-03-29T05:04:56.854Z,93.10
2023-03-29T05:06:07.581Z,90.50
2023-03-29T05:07:12.980Z,90.60
2023-03-29T05:08:14.423Z,90.50
2023-03-29T05:09:39.191Z,90.70
2023-03-29T05:10:44.212Z,90.00
2023-03-29T05:11:46.793Z,89.60
2023-03-29T05:12:53.804Z,87.70
2023-03-29T05:14:00.705Z,87.80
2023-03-29T05:15:04.683Z,89.30
2023-03-29T05:16:07.844Z,88.30
2023-03-29T05:17:09.756Z,88.00
2023-03-29T05:18:11.559Z,86.70
2023-03-29T05:19:13.120Z,87.10
2023-03-29T05:20:19.261Z,87.80
2023-03-29T05:21:22.858Z,87.60
2023-03-29T05:22:25.627Z,86.80
2023-03-29T05:23:27.521Z,87.40
2023-03-29T05:24:55.545Z,87.10
2023-03-29T05:25:58.011Z,87.00
2023-03-29T05:27:00.384Z,87.40
2023-03-29T05:28:05.217Z,87.40
2023-03-29T05:29:08.918Z,87.10
2023-03-29T05:30:11.607Z,87.30
2023-03-29T05:31:25.016Z,87.90
2023-03-29T05:32:30.306Z,87.80
2023-03-29T05:33:33.668Z,88.20
2023-03-29T05:34:36.374Z,87.60
2023-03-29T05:35:38.195Z,88.00
2023-03-29T05:36:43.258Z,88.10
2023-03-29T05:37:47.168Z,89.90
2023-03-29T05:38:49.208Z,90.00
2023-03-29T05:39:50.776Z,89.90
2023-03-29T05:40:56.680Z,90.10
2023-03-29T05:42:30.193Z,90.00
2023-03-29T05:43:35.577Z,89.90
2023-03-29T05:44:38.019Z,89.70
2023-03-29T05:45:48.697Z,90.30
2023-03-29T05:46:50.445Z,92.00
2023-03-29T05:47:52.295Z,93.40
2023-03-29T05:48:53.991Z,93.40
2023-03-29T05:49:58.135Z,93.10
2023-03-29T05:50:59.845Z,93.70
2023-03-29T05:52:02.481Z,92.40
2023-03-29T05:53:05.275Z,92.80
2023-03-29T05:54:07.681Z,92.30
2023-03-29T05:55:10.430Z,91.90
2023-03-29T05:56:16.053Z,93.00
2023-03-29T05:57:18.027Z,93.50
2023-03-29T05:58:21.770Z,92.20
2023-03-29T05:59:24.404Z,92.20
2023-03-29T06:00:26.724Z,93.10
2023-03-29T06:01:40.016Z,93.10
2023-03-29T06:02:45.704Z,95.10
2023-03-29T06:03:47.534Z,96.60
2023-03-29T06:04:49.805Z,97.80
2023-03-29T06:06:02.474Z,98.30
2023-03-29T06:07:05.561Z,98.90
2023-03-29T06:08:08.977Z,99.60
2023-03-29T06:09:34.164Z,99.90
2023-03-29T06:10:38.997Z,99.90
2023-03-29T06:11:53.704Z,99.90
2023-03-29T06:13:10.842Z,99.90
2023-03-29T06:14:16.264Z,99.90
2023-03-29T06:15:25.723Z,99.90
2023-03-29T06:16:36.357Z,99.90
2023-03-29T06:17:39.502Z,99.90
2023-03-29T06:18:41.567Z,99.90
2023-03-29T06:19:44.392Z,99.90
2023-03-29T06:20:50.893Z,99.90
2023-03-29T06:21:54.372Z,99.90
2023-03-29T06:22:59.986Z,98.50
2023-03-29T06:24:01.581Z,96.20
2023-03-29T06:25:10.883Z,94.50
2023-03-29T06:26:13.322Z,93.70
2023-03-29T06:27:15.795Z,93.90
2023-03-29T06:28:19.147Z,96.50
2023-03-29T06:29:22.366Z,97.40
2023-03-29T06:30:25.796Z,97.70
2023-03-29T06:31:31.313Z,97.80
2023-03-29T06:32:35.654Z,97.40
2023-03-29T06:33:43.226Z,96.00
2023-03-29T06:35:17.310Z,96.60
2023-03-29T06:36:25.908Z,96.50
2023-03-29T06:37:29.131Z,97.80
2023-03-29T06:38:56.970Z,99.10
2023-03-29T06:40:13.252Z,99.20
2023-03-29T06:41:18.741Z,99.90
2023-03-29T06:42:43.344Z,99.90
2023-03-29T06:44:04.329Z,99.90
2023-03-29T06:45:10.739Z,99.90
2023-03-29T06:46:14.087Z,99.90
2023-03-29T06:47:31.545Z,99.90
2023-03-29T06:48:33.152Z,99.90
2023-03-29T06:49:34.753Z,99.90
2023-03-29T06:51:04.587Z,99.90
2023-03-29T06:52:06.669Z,99.90
2023-03-29T06:53:08.121Z,99.80
2023-03-29T06:54:10.209Z,99.20
2023-03-29T06:55:16.537Z,99.00
2023-03-29T06:56:18.285Z,99.90
2023-03-29T06:57:22.736Z,99.90
2023-03-29T06:58:24.286Z,99.90
2023-03-29T06:59:26.679Z,99.90
2023-03-29T07:00:35.817Z,99.90
2023-03-29T07:01:42.998Z,99.90
2023-03-29T07:02:51.001Z,99.90
2023-03-29T07:03:53.204Z,99.90
2023-03-29T07:05:01.675Z,99.90
2023-03-29T07:06:10.112Z,99.90
2023-03-29T07:07:20.147Z,99.90
2023-03-29T07:08:31.268Z,99.90
2023-03-29T07:09:35.942Z,97.80
2023-03-29T07:10:59.302Z,97.90
2023-03-29T07:12:07.431Z,96.00
2023-03-29T07:13:14.283Z,95.80
2023-03-29T07:14:17.669Z,96.10
2023-03-29T07:15:21.625Z,98.50
2023-03-29T07:16:44.192Z,97.30
2023-03-29T07:17:51.732Z,97.50
2023-03-29T07:18:54.384Z,95.90
2023-03-29T07:20:15.444Z,97.70
2023-03-29T07:21:21.257Z,95.10
2023-03-29T07:22:23.666Z,96.80
2023-03-29T07:23:29.641Z,97.80
2023-03-29T07:24:31.692Z,99.00
2023-03-29T07:25:33.936Z,99.40
2023-03-29T07:26:35.914Z,99.90
2023-03-29T07:27:37.786Z,99.90
2023-03-29T07:28:39.914Z,99.90
2023-03-29T07:29:41.477Z,99.90
2023-03-29T07:30:43.656Z,95.70
2023-03-29T07:31:47.846Z,94.20
2023-03-29T07:33:09.429Z,97.10
2023-03-29T07:34:17.559Z,98.90
2023-03-29T07:35:19.411Z,99.90
2023-03-29T07:36:21.451Z,99.90
2023-03-29T07:37:24.698Z,99.70
2023-03-29T07:38:27.486Z,99.90
2023-03-29T07:39:44.654Z,99.90
2023-03-29T07:41:08.260Z,99.90
2023-03-29T07:42:18.910Z,99.90
2023-03-29T07:43:22.042Z,98.10
2023-03-29T07:44:23.837Z,95.70
2023-03-29T07:45:29.396Z,99.60
2023-03-29T07:46:36.326Z,99.90
2023-03-29T07:47:38.845Z,99.90
2023-03-29T07:48:40.929Z,99.90
2023-03-29T07:49:45.206Z,99.90
2023-03-29T07:50:47.099Z,99.90
2023-03-29T07:51:50.558Z,99.90
2023-03-29T07:52:53.214Z,99.90
2023-03-29T07:53:55.116Z,99.90
2023-03-29T07:55:08.618Z,99.90
2023-03-29T07:56:25.324Z,99.90
2023-03-29T07:57:46.345Z,99.90
2023-03-29T07:58:48.102Z,99.90
2023-03-29T07:59:51.401Z,99.90
2023-03-29T08:01:00.260Z,99.90
2023-03-29T08:02:29.257Z,99.90
2023-03-29T08:03:36.380Z,99.80
2023-03-29T08:04:40.544Z,99.80
2023-03-29T08:05:51.461Z,99.90
2023-03-29T08:06:54.208Z,99.90
2023-03-29T08:07:59.507Z,99.90
2023-03-29T08:09:19.447Z,99.90
2023-03-29T08:10:22.516Z,99.90
2023-03-29T08:11:44.584Z,98.90
2023-03-29T08:12:54.798Z,98.80
2023-03-29T08:14:03.949Z,99.90
2023-03-29T08:15:28.239Z,98.70
2023-03-29T08:16:29.670Z,97.40
2023-03-29T08:17:41.324Z,97.50
2023-03-29T08:18:43.352Z,97.40
2023-03-29T08:19:50.979Z,98.50
2023-03-29T08:20:55.514Z,98.80
2023-03-29T08:21:57.527Z,95.60
2023-03-29T08:23:02.395Z,95.50
2023-03-29T08:24:22.565Z,95.50
2023-03-29T08:25:30.041Z,97.30
2023-03-29T08:26:33.760Z,97.70
2023-03-29T08:27:37.616Z,97.80
2023-03-29T08:28:39.842Z,96.80
2023-03-29T08:29:42.140Z,94.80
2023-03-29T08:30:44.104Z,94.30
2023-03-29T08:31:45.783Z,94.40
2023-03-29T08:32:50.874Z,93.70
2023-03-29T08:33:53.829Z,91.90
2023-03-29T08:35:18.223Z,90.90
2023-03-29T08:36:40.366Z,88.50
2023-03-29T08:37:49.938Z,89.70
2023-03-29T08:38:52.493Z,86.80
2023-03-29T08:39:53.889Z,86.90
2023-03-29T08:41:31.819Z,85.80
2023-03-29T08:42:49.281Z,85.00
2023-03-29T08:44:16.294Z,81.90
2023-03-29T08:46:01.043Z,80.90
2023-03-29T08:47:14.046Z,79.30
2023-03-29T08:48:27.298Z,78.20
2023-03-29T08:49:30.751Z,77.70
2023-03-29T08:50:36.888Z,80.10
2023-03-29T08:51:45.520Z,79.50
2023-03-29T08:52:52.533Z,78.80
2023-03-29T08:54:27.115Z,78.30
2023-03-29T08:55:57.361Z,77.70
2023-03-29T08:57:18.786Z,76.50
2023-03-29T08:58:31.786Z,75.50
2023-03-29T08:59:34.724Z,74.70
2023-03-29T09:00:45.780Z,76.40
2023-03-29T09:01:51.828Z,77.20
2023-03-29T09:02:55.049Z,77.60
2023-03-29T09:04:17.619Z,79.10
2023-03-29T09:05:59.783Z,80.50
2023-03-29T09:07:03.969Z,79.60
2023-03-29T09:08:17.368Z,78.70
2023-03-29T09:09:24.084Z,78.20
2023-03-29T09:10:38.874Z,78.10
2023-03-29T09:12:17.639Z,81.10
2023-03-29T09:13:40.988Z,78.70
2023-03-29T09:15:02.923Z,80.30
2023-03-29T09:16:14.692Z,75.70
2023-03-29T09:17:28.983Z,77.00
2023-03-29T09:18:57.882Z,79.00
2023-03-29T09:20:05.018Z,80.80
2023-03-29T09:21:22.870Z,87.10
2023-03-29T09:22:50.057Z,77.40
2023-03-29T09:24:13.625Z,75.60
2023-03-29T09:25:58.736Z,76.50
2023-03-29T09:27:26.700Z,75.80
2023-03-29T09:29:03.223Z,77.80
2023-03-29T09:30:28.548Z,80.10
2023-03-29T09:31:39.030Z,74.60
2023-03-29T09:32:51.324Z,74.50
2023-03-29T09:34:07.022Z,73.10
2023-03-29T09:35:36.681Z,72.90
2023-03-29T09:37:14.804Z,72.50
2023-03-29T09:38:20.045Z,73.00
2023-03-29T09:39:22.735Z,73.80
2023-03-29T09:40:41.358Z,73.60
2023-03-29T09:42:09.073Z,73.00
2023-03-29T09:43:18.734Z,72.30
2023-03-29T09:44:32.177Z,72.50
2023-03-29T09:45:42.005Z,72.90
2023-03-29T09:46:47.592Z,71.00
2023-03-29T09:47:58.403Z,71.40
2023-03-29T09:49:04.874Z,70.80
2023-03-29T09:50:23.502Z,70.50
2023-03-29T09:51:34.243Z,72.60
2023-03-29T09:52:36.181Z,69.90
2023-03-29T09:53:48.844Z,70.00
2023-03-29T09:55:14.264Z,71.10
2023-03-29T09:56:34.582Z,71.10
2023-03-29T09:57:45.228Z,71.40
2023-03-29T09:58:48.842Z,71.60
2023-03-29T09:59:52.796Z,71.70
2023-03-29T10:00:58.292Z,70.70
2023-03-29T10:02:11.838Z,70.40
2023-03-29T10:03:21.858Z,69.20
2023-03-29T10:04:30.825Z,69.30
2023-03-29T10:05:39.967Z,69.50
2023-03-29T10:06:52.105Z,70.80
2023-03-29T10:07:57.787Z,70.30
2023-03-29T10:09:00.080Z,72.10
2023-03-29T10:10:18.606Z,72.00
2023-03-29T10:11:20.279Z,71.60
2023-03-29T10:12:23.007Z,71.50
2023-03-29T10:13:33.933Z,71.50
2023-03-29T10:14:37.137Z,71.60
2023-03-29T10:15:38.616Z,71.90
2023-03-29T10:16:42.040Z,70.40
2023-03-29T10:17:46.085Z,70.90
2023-03-29T10:18:50.266Z,71.50
2023-03-29T10:20:04.655Z,72.50
2023-03-29T10:21:07.333Z,71.30
2023-03-29T10:22:19.281Z,72.50
2023-03-29T10:23:20.687Z,72.40
2023-03-29T10:24:25.762Z,72.50
2023-03-29T10:25:30.607Z,71.10
2023-03-29T10:26:34.440Z,71.90
2023-03-29T10:27:36.306Z,73.10
2023-03-29T10:28:38.316Z,72.10
2023-03-29T10:29:42.420Z,72.60
2023-03-29T10:30:52.372Z,73.00
2023-03-29T10:31:54.300Z,72.20
2023-03-29T10:33:00.511Z,73.40
2023-03-29T10:34:04.616Z,73.80
2023-03-29T10:35:11.145Z,72.70
2023-03-29T10:36:14.504Z,72.20
2023-03-29T10:37:21.071Z,72.50
2023-03-29T10:38:27.864Z,72.90
2023-03-29T10:39:33.921Z,74.30
2023-03-29T10:40:41.580Z,74.20
2023-03-29T10:41:44.656Z,73.20
2023-03-29T10:42:50.839Z,74.80
2023-03-29T10:43:52.792Z,77.10
2023-03-29T10:44:59.442Z,74.90
2023-03-29T10:46:13.514Z,75.90
2023-03-29T10:47:16.799Z,74.30
2023-03-29T10:48:19.371Z,75.40
2023-03-29T10:49:23.247Z,74.40
2023-03-29T10:50:26.682Z,73.60
2023-03-29T10:51:30.234Z,73.20
2023-03-29T10:52:32.171Z,72.40
2023-03-29T10:53:37.888Z,72.40
2023-03-29T10:54:39.509Z,71.80
2023-03-29T10:56:00.511Z,72.20
2023-03-29T10:57:08.597Z,70.50
2023-03-29T10:58:16.128Z,71.60
2023-03-29T10:59:38.735Z,70.50
2023-03-29T11:00:55.279Z,70.20
2023-03-29T11:02:15.097Z,69.70
2023-03-29T11:03:58.129Z,69.10
2023-03-29T11:05:05.914Z,69.00
2023-03-29T11:06:20.967Z,69.10
2023-03-29T11:07:51.907Z,69.90
2023-03-29T11:09:17.694Z,68.70
2023-03-29T11:10:19.166Z,68.90
2023-03-29T11:11:41.235Z,69.00
2023-03-29T11:13:01.304Z,69.10
2023-03-29T11:14:13.940Z,69.00
2023-03-29T11:15:34.523Z,68.60
2023-03-29T11:17:18.481Z,68.10
2023-03-29T11:18:28.819Z,68.70
2023-03-29T11:19:47.696Z,69.90
2023-03-29T11:21:06.935Z,70.00
2023-03-29T11:22:42.750Z,70.60
2023-03-29T11:24:01.675Z,68.20
2023-03-29T11:25:29.624Z,69.10
2023-03-29T11:27:07.234Z,66.80
2023-03-29T11:28:28.804Z,67.50
2023-03-29T11:30:02.711Z,66.70
2023-03-29T11:31:13.761Z,67.20
2023-03-29T11:32:29.269Z,67.60
2023-03-29T11:33:49.937Z,68.20
2023-03-29T11:35:13.168Z,68.20
2023-03-29T11:36:28.354Z,68.30
2023-03-29T11:37:45.840Z,66.20
2023-03-29T11:38:58.908Z,67.70
2023-03-29T11:40:27.852Z,66.70
2023-03-29T11:41:34.053Z,70.30
2023-03-29T11:42:41.081Z,71.00
2023-03-29T11:44:06.302Z,71.00
2023-03-29T11:45:16.710Z,71.70
2023-03-29T11:46:26.245Z,68.60
2023-03-29T11:47:36.675Z,69.00
2023-03-29T11:48:48.210Z,68.90
2023-03-29T11:50:18.769Z,70.60
2023-03-29T11:51:25.783Z,67.90
2023-03-29T11:52:33.694Z,67.30
2023-03-29T11:53:50.554Z,68.60
2023-03-29T11:55:14.569Z,67.80
2023-03-29T11:56:24.553Z,68.70
2023-03-29T11:57:39.430Z,69.60
2023-03-29T11:58:47.383Z,70.40
2023-03-29T11:59:59.833Z,67.90
2023-03-29T12:01:07.486Z,69.10
2023-03-29T12:02:32.563Z,68.70
2023-03-29T12:03:38.479Z,68.30
2023-03-29T12:04:48.537Z,68.30
2023-03-29T12:05:56.688Z,68.80
2023-03-29T12:07:22.493Z,70.30
2023-03-29T12:08:26.689Z,70.70
2023-03-29T12:09:37.882Z,72.50
2023-03-29T12:11:01.385Z,70.90
2023-03-29T12:12:27.087Z,69.90
2023-03-29T12:13:32.576Z,70.70
2023-03-29T12:15:00.555Z,71.20
2023-03-29T12:16:16.568Z,70.90
2023-03-29T12:17:24.403Z,70.20
2023-03-29T12:18:45.431Z,69.50
2023-03-29T12:20:18.031Z,69.80
2023-03-29T12:21:24.566Z,69.70
2023-03-29T12:22:26.866Z,70.10
2023-03-29T12:23:32.978Z,69.80
2023-03-29T12:24:38.783Z,69.60
2023-03-29T12:26:17.518Z,69.40
2023-03-29T12:27:45.349Z,69.40
2023-03-29T12:29:04.214Z,69.40
2023-03-29T12:30:27.549Z,68.30
2023-03-29T12:31:52.296Z,69.50
2023-03-29T12:33:05.000Z,68.80
2023-03-29T12:34:54.090Z,68.70
2023-03-29T12:37:01.958Z,69.80
2023-03-29T12:38:30.534Z,68.90
2023-03-29T12:39:51.896Z,68.70
2023-03-29T12:41:19.150Z,68.30
2023-03-29T12:42:32.803Z,68.70
2023-03-29T12:43:39.996Z,69.40
2023-03-29T12:45:02.781Z,69.90
2023-03-29T12:46:25.603Z,70.60
2023-03-29T12:47:34.009Z,68.70
2023-03-29T12:48:39.891Z,68.30
2023-03-29T12:49:41.859Z,68.70
2023-03-29T12:50:49.542Z,70.20
2023-03-29T12:51:51.258Z,70.30
2023-03-29T12:52:53.192Z,69.00
2023-03-29T12:54:01.969Z,68.80
2023-03-29T12:55:40.386Z,69.10
2023-03-29T12:56:55.516Z,69.80
2023-03-29T12:58:09.894Z,69.50
2023-03-29T12:59:11.566Z,68.80
2023-03-29T13:00:42.625Z,69.50
2023-03-29T13:02:02.992Z,68.70
2023-03-29T13:03:20.461Z,70.00
2023-03-29T13:04:22.820Z,69.80
2023-03-29T13:05:36.375Z,68.60
2023-03-29T13:06:47.216Z,70.60
2023-03-29T13:07:48.730Z,70.70
2023-03-29T13:09:20.130Z,69.50
2023-03-29T13:10:41.372Z,69.80
2023-03-29T13:11:43.172Z,69.40
2023-03-29T13:12:46.048Z,69.80
2023-03-29T13:13:50.918Z,70.00
2023-03-29T13:14:59.241Z,70.80
2023-03-29T13:16:16.871Z,70.60
2023-03-29T13:17:52.845Z,70.10
2023-03-29T13:19:06.659Z,69.50
2023-03-29T13:20:37.402Z,69.90
2023-03-29T13:21:48.250Z,70.90
2023-03-29T13:22:58.294Z,70.70
2023-03-29T13:24:40.482Z,69.50
2023-03-29T13:25:55.917Z,69.90
2023-03-29T13:27:31.701Z,70.40
2023-03-29T13:28:38.734Z,70.90
2023-03-29T13:29:58.714Z,70.20
2023-03-29T13:31:10.972Z,70.00
2023-03-29T13:32:30.422Z,70.00
2023-03-29T13:33:56.220Z,68.60
2023-03-29T13:35:34.422Z,68.10
2023-03-29T13:37:10.592Z,68.60
2023-03-29T13:38:21.496Z,70.00
2023-03-29T13:39:28.226Z,69.20
2023-03-29T13:40:29.708Z,68.20
2023-03-29T13:41:48.422Z,68.80
2023-03-29T13:43:18.500Z,69.40
2023-03-29T13:44:22.775Z,70.00
2023-03-29T13:45:27.624Z,69.80
2023-03-29T13:46:42.613Z,70.30
2023-03-29T13:47:58.455Z,69.80
2023-03-29T13:49:15.266Z,69.40
2023-03-29T13:50:20.682Z,69.40
2023-03-29T13:51:31.712Z,69.30
2023-03-29T13:52:54.853Z,68.30
2023-03-29T13:54:19.549Z,68.20
2023-03-29T13:55:27.112Z,68.10
2023-03-29T13:56:38.704Z,67.30
2023-03-29T13:57:52.807Z,66.20
2023-03-29T13:59:10.714Z,66.40
2023-03-29T14:00:31.113Z,68.20
2023-03-29T14:01:46.817Z,68.20
2023-03-29T14:02:55.738Z,68.60
2023-03-29T14:03:59.395Z,68.00
2023-03-29T14:05:04.104Z,68.70
2023-03-29T14:06:06.729Z,69.70
2023-03-29T14:07:11.216Z,68.80
2023-03-29T14:08:32.416Z,69.90
2023-03-29T14:09:41.414Z,69.30
2023-03-29T14:10:45.203Z,68.90
2023-03-29T14:11:47.812Z,66.80
2023-03-29T14:12:50.044Z,67.70
2023-03-29T14:13:57.052Z,68.00
2023-03-29T14:15:02.015Z,68.20
2023-03-29T14:16:10.250Z,68.20
2023-03-29T14:17:21.298Z,67.80
2023-03-29T14:18:26.493Z,69.00
2023-03-29T14:19:38.119Z,68.10
2023-03-29T14:20:46.134Z,67.50
2023-03-29T14:21:51.200Z,66.80
2023-03-29T14:22:53.486Z,67.30
2023-03-29T14:24:00.368Z,66.60
2023-03-29T14:25:07.593Z,66.00
2023-03-29T14:26:19.042Z,66.30
2023-03-29T14:27:22.138Z,67.00
2023-03-29T14:28:24.913Z,66.70
2023-03-29T14:29:31.848Z,66.40
2023-03-29T14:30:33.525Z,66.90
2023-03-29T14:31:40.576Z,66.90
2023-03-29T14:32:42.246Z,65.80
2023-03-29T14:33:43.852Z,67.00
2023-03-29T14:34:49.525Z,67.10
2023-03-29T14:35:51.198Z,66.60
2023-03-29T14:36:54.103Z,66.70
2023-03-29T14:37:56.505Z,66.50
2023-03-29T14:39:01.973Z,66.50
2023-03-29T14:40:08.761Z,66.60
2023-03-29T14:41:10.688Z,67.30
2023-03-29T14:42:20.888Z,66.20
2023-03-29T14:43:24.210Z,67.20
2023-03-29T14:44:31.947Z,67.10
2023-03-29T14:45:34.133Z,66.20
2023-03-29T14:46:36.666Z,66.50
2023-03-29T14:47:40.449Z,66.70
2023-03-29T14:48:42.672Z,66.90
2023-03-29T14:49:45.058Z,67.10
2023-03-29T14:50:47.675Z,67.00
2023-03-29T14:51:50.310Z,66.80
2023-03-29T14:52:52.631Z,66.50
2023-03-29T14:53:55.021Z,66.40
2023-03-29T14:55:00.138Z,67.10
2023-03-29T14:56:02.387Z,66.90
2023-03-29T14:57:07.234Z,66.00
2023-03-29T14:58:27.475Z,65.10
2023-03-29T14:59:41.273Z,64.60
2023-03-29T15:00:43.422Z,65.70